sensor_id;sensor_type;location;lat;lon;timestamp;P1;durP1;ratioP1;P2;durP2;ratioP2
5646;SDS011;2845;48.626;9.362;2023-11-18T00:00:05;2.42;;;0.70;;
5646;SDS011;2845;48.626;9.362;2023-11-18T00:02:45;2.17;;;1.00;;
5646;SDS011;2845;48.626;9.362;2023-11-18T00:05:20;2.35;;;0.90;;
5646;SDS011;2845;48.626;9.362;2023-11-18T00:07:56;2.45;;;1.15;;
5646;SDS011;2845;48.626;9.362;2023-11-18T00:10:30;1.08;;;0.50;;
5646;SDS011;2845;48.626;9.362;2023-11-18T00:13:05;1.75;;;0.77;;
5646;SDS011;2845;48.626;9.362;2023-11-18T00:15:41;1.60;;;0.50;;
5646;SDS011;2845;48.626;9.362;2023-11-18T00:18:18;1.05;;;0.43;;
5646;SDS011;2845;48.626;9.362;2023-11-18T00:20:52;2.10;;;0.75;;
5646;SDS011;2845;48.626;9.362;2023-11-18T00:23:29;2.30;;;0.88;;
5646;SDS011;2845;48.626;9.362;2023-11-18T00:26:04;1.77;;;0.80;;
5646;SDS011;2845;48.626;9.362;2023-11-18T00:28:42;1.55;;;0.80;;
5646;SDS011;2845;48.626;9.362;2023-11-18T00:31:16;1.80;;;0.70;;
5646;SDS011;2845;48.626;9.362;2023-11-18T00:33:51;2.42;;;1.00;;
5646;SDS011;2845;48.626;9.362;2023-11-18T00:36:25;1.27;;;0.47;;
5646;SDS011;2845;48.626;9.362;2023-11-18T00:39:00;3.55;;;0.70;;
5646;SDS011;2845;48.626;9.362;2023-11-18T00:41:36;2.45;;;1.15;;
5646;SDS011;2845;48.626;9.362;2023-11-18T00:44:12;2.42;;;1.00;;
5646;SDS011;2845;48.626;9.362;2023-11-18T00:46:47;3.05;;;0.93;;
5646;SDS011;2845;48.626;9.362;2023-11-18T00:49:22;3.63;;;1.38;;
5646;SDS011;2845;48.626;9.362;2023-11-18T00:51:58;3.88;;;0.90;;
5646;SDS011;2845;48.626;9.362;2023-11-18T00:54:32;2.55;;;1.20;;
5646;SDS011;2845;48.626;9.362;2023-11-18T00:57:08;2.67;;;0.93;;
5646;SDS011;2845;48.626;9.362;2023-11-18T00:59:45;1.77;;;0.90;;
5646;SDS011;2845;48.626;9.362;2023-11-18T01:02:19;3.33;;;1.30;;
5646;SDS011;2845;48.626;9.362;2023-11-18T01:04:54;2.95;;;1.20;;
5646;SDS011;2845;48.626;9.362;2023-11-18T01:07:28;1.65;;;0.70;;
5646;SDS011;2845;48.626;9.362;2023-11-18T01:10:03;1.38;;;0.80;;
5646;SDS011;2845;48.626;9.362;2023-11-18T01:12:38;1.75;;;0.80;;
5646;SDS011;2845;48.626;9.362;2023-11-18T01:15:14;2.15;;;1.10;;
5646;SDS011;2845;48.626;9.362;2023-11-18T01:17:49;2.05;;;0.70;;
5646;SDS011;2845;48.626;9.362;2023-11-18T01:20:23;1.40;;;0.70;;
5646;SDS011;2845;48.626;9.362;2023-11-18T01:22:58;2.55;;;1.10;;
5646;SDS011;2845;48.626;9.362;2023-11-18T01:25:33;2.03;;;0.82;;
5646;SDS011;2845;48.626;9.362;2023-11-18T01:28:07;1.83;;;0.85;;
5646;SDS011;2845;48.626;9.362;2023-11-18T01:30:43;2.58;;;1.10;;
5646;SDS011;2845;48.626;9.362;2023-11-18T01:33:18;1.70;;;0.70;;
5646;SDS011;2845;48.626;9.362;2023-11-18T01:35:52;2.83;;;1.10;;
5646;SDS011;2845;48.626;9.362;2023-11-18T01:38:27;2.55;;;1.10;;
5646;SDS011;2845;48.626;9.362;2023-11-18T01:41:03;2.35;;;1.08;;
5646;SDS011;2845;48.626;9.362;2023-11-18T01:43:38;2.28;;;0.90;;
5646;SDS011;2845;48.626;9.362;2023-11-18T01:46:15;2.25;;;1.00;;
5646;SDS011;2845;48.626;9.362;2023-11-18T01:48:52;2.22;;;0.88;;
5646;SDS011;2845;48.626;9.362;2023-11-18T01:51:26;2.22;;;1.00;;
5646;SDS011;2845;48.626;9.362;2023-11-18T01:54:03;2.42;;;1.10;;
5646;SDS011;2845;48.626;9.362;2023-11-18T01:56:39;3.00;;;1.10;;
5646;SDS011;2845;48.626;9.362;2023-11-18T01:59:14;2.42;;;0.95;;
5646;SDS011;2845;48.626;9.362;2023-11-18T02:01:52;2.75;;;1.30;;
5646;SDS011;2845;48.626;9.362;2023-11-18T02:07:06;3.85;;;1.30;;
5646;SDS011;2845;48.626;9.362;2023-11-18T02:09:41;2.35;;;0.95;;
5646;SDS011;2845;48.626;9.362;2023-11-18T02:12:19;1.60;;;0.80;;
5646;SDS011;2845;48.626;9.362;2023-11-18T02:14:59;2.22;;;0.90;;
5646;SDS011;2845;48.626;9.362;2023-11-18T02:17:38;2.42;;;1.23;;
5646;SDS011;2845;48.626;9.362;2023-11-18T02:20:13;2.42;;;0.98;;
5646;SDS011;2845;48.626;9.362;2023-11-18T02:22:51;2.38;;;1.20;;
5646;SDS011;2845;48.626;9.362;2023-11-18T02:25:26;1.75;;;0.75;;
5646;SDS011;2845;48.626;9.362;2023-11-18T02:28:04;1.88;;;0.57;;
5646;SDS011;2845;48.626;9.362;2023-11-18T02:30:38;1.95;;;1.00;;
5646;SDS011;2845;48.626;9.362;2023-11-18T02:33:15;1.63;;;0.88;;
5646;SDS011;2845;48.626;9.362;2023-11-18T02:35:57;1.92;;;0.90;;
5646;SDS011;2845;48.626;9.362;2023-11-18T02:38:43;2.03;;;0.77;;
5646;SDS011;2845;48.626;9.362;2023-11-18T02:41:23;1.40;;;0.63;;
5646;SDS011;2845;48.626;9.362;2023-11-18T02:44:03;1.98;;;0.95;;
5646;SDS011;2845;48.626;9.362;2023-11-18T02:46:43;1.95;;;0.70;;
5646;SDS011;2845;48.626;9.362;2023-11-18T02:49:18;1.85;;;0.82;;
5646;SDS011;2845;48.626;9.362;2023-11-18T02:51:52;1.10;;;0.50;;
5646;SDS011;2845;48.626;9.362;2023-11-18T02:54:27;2.97;;;1.00;;
5646;SDS011;2845;48.626;9.362;2023-11-18T02:57:02;1.42;;;0.70;;
5646;SDS011;2845;48.626;9.362;2023-11-18T02:59:38;2.10;;;0.93;;
5646;SDS011;2845;48.626;9.362;2023-11-18T03:02:12;1.80;;;0.90;;
5646;SDS011;2845;48.626;9.362;2023-11-18T03:04:47;1.77;;;0.93;;
5646;SDS011;2845;48.626;9.362;2023-11-18T03:07:22;1.10;;;0.60;;
5646;SDS011;2845;48.626;9.362;2023-11-18T03:09:56;1.90;;;1.00;;
5646;SDS011;2845;48.626;9.362;2023-11-18T03:12:32;2.78;;;0.93;;
5646;SDS011;2845;48.626;9.362;2023-11-18T03:15:08;1.88;;;0.93;;
5646;SDS011;2845;48.626;9.362;2023-11-18T03:17:44;1.60;;;0.73;;
5646;SDS011;2845;48.626;9.362;2023-11-18T03:20:21;2.13;;;0.90;;
5646;SDS011;2845;48.626;9.362;2023-11-18T03:22:59;1.90;;;0.90;;
5646;SDS011;2845;48.626;9.362;2023-11-18T03:25:34;2.05;;;1.08;;
5646;SDS011;2845;48.626;9.362;2023-11-18T03:28:10;2.25;;;1.00;;
5646;SDS011;2845;48.626;9.362;2023-11-18T03:30:46;2.08;;;0.95;;
5646;SDS011;2845;48.626;9.362;2023-11-18T03:33:20;5.60;;;1.10;;
5646;SDS011;2845;48.626;9.362;2023-11-18T03:35:55;2.85;;;1.15;;
5646;SDS011;2845;48.626;9.362;2023-11-18T03:38:30;2.13;;;0.90;;
5646;SDS011;2845;48.626;9.362;2023-11-18T03:41:06;2.45;;;1.10;;
5646;SDS011;2845;48.626;9.362;2023-11-18T03:43:41;2.45;;;1.08;;
5646;SDS011;2845;48.626;9.362;2023-11-18T03:46:17;2.17;;;1.15;;
5646;SDS011;2845;48.626;9.362;2023-11-18T03:48:52;2.35;;;1.10;;
5646;SDS011;2845;48.626;9.362;2023-11-18T03:51:26;2.00;;;1.05;;
5646;SDS011;2845;48.626;9.362;2023-11-18T03:54:01;2.83;;;1.60;;
5646;SDS011;2845;48.626;9.362;2023-11-18T03:56:37;2.40;;;1.20;;
5646;SDS011;2845;48.626;9.362;2023-11-18T03:59:11;1.55;;;1.10;;
5646;SDS011;2845;48.626;9.362;2023-11-18T04:01:47;3.17;;;1.20;;
5646;SDS011;2845;48.626;9.362;2023-11-18T04:04:23;2.78;;;1.40;;
5646;SDS011;2845;48.626;9.362;2023-11-18T04:06:57;2.40;;;1.48;;
5646;SDS011;2845;48.626;9.362;2023-11-18T04:09:33;2.38;;;1.10;;
5646;SDS011;2845;48.626;9.362;2023-11-18T04:12:08;2.58;;;1.30;;
5646;SDS011;2845;48.626;9.362;2023-11-18T04:14:43;2.95;;;1.17;;
5646;SDS011;2845;48.626;9.362;2023-11-18T04:17:19;1.80;;;0.85;;
5646;SDS011;2845;48.626;9.362;2023-11-18T04:19:53;2.13;;;0.90;;
5646;SDS011;2845;48.626;9.362;2023-11-18T04:22:29;2.40;;;1.73;;
5646;SDS011;2845;48.626;9.362;2023-11-18T04:25:04;1.83;;;0.90;;
5646;SDS011;2845;48.626;9.362;2023-11-18T04:27:40;2.50;;;1.10;;
5646;SDS011;2845;48.626;9.362;2023-11-18T04:30:18;2.40;;;0.95;;
5646;SDS011;2845;48.626;9.362;2023-11-18T04:32:55;3.08;;;1.20;;
5646;SDS011;2845;48.626;9.362;2023-11-18T04:35:30;1.95;;;1.30;;
5646;SDS011;2845;48.626;9.362;2023-11-18T04:38:07;2.45;;;1.20;;
5646;SDS011;2845;48.626;9.362;2023-11-18T04:40:42;2.15;;;0.90;;
5646;SDS011;2845;48.626;9.362;2023-11-18T04:43:17;3.17;;;1.02;;
5646;SDS011;2845;48.626;9.362;2023-11-18T04:46:06;2.97;;;1.20;;
5646;SDS011;2845;48.626;9.362;2023-11-18T04:48:42;2.67;;;1.00;;
5646;SDS011;2845;48.626;9.362;2023-11-18T04:51:17;1.63;;;0.90;;
5646;SDS011;2845;48.626;9.362;2023-11-18T04:53:52;2.28;;;1.15;;
5646;SDS011;2845;48.626;9.362;2023-11-18T04:56:26;2.35;;;1.02;;
5646;SDS011;2845;48.626;9.362;2023-11-18T04:59:05;5.32;;;1.40;;
5646;SDS011;2845;48.626;9.362;2023-11-18T05:01:40;2.35;;;1.17;;
5646;SDS011;2845;48.626;9.362;2023-11-18T05:04:16;2.03;;;1.15;;
5646;SDS011;2845;48.626;9.362;2023-11-18T05:06:51;3.47;;;1.27;;
5646;SDS011;2845;48.626;9.362;2023-11-18T05:09:26;2.65;;;1.38;;
5646;SDS011;2845;48.626;9.362;2023-11-18T05:12:01;2.17;;;1.05;;
5646;SDS011;2845;48.626;9.362;2023-11-18T05:14:37;2.40;;;1.15;;
5646;SDS011;2845;48.626;9.362;2023-11-18T05:17:15;2.13;;;1.05;;
5646;SDS011;2845;48.626;9.362;2023-11-18T05:19:52;3.33;;;1.30;;
5646;SDS011;2845;48.626;9.362;2023-11-18T05:22:27;1.58;;;0.93;;
5646;SDS011;2845;48.626;9.362;2023-11-18T05:25:02;1.85;;;0.93;;
5646;SDS011;2845;48.626;9.362;2023-11-18T05:27:40;3.47;;;1.20;;
5646;SDS011;2845;48.626;9.362;2023-11-18T05:30:16;2.63;;;1.20;;
5646;SDS011;2845;48.626;9.362;2023-11-18T05:32:51;3.25;;;1.05;;
5646;SDS011;2845;48.626;9.362;2023-11-18T05:35:30;2.55;;;1.23;;
5646;SDS011;2845;48.626;9.362;2023-11-18T05:38:07;4.00;;;1.63;;
5646;SDS011;2845;48.626;9.362;2023-11-18T05:40:44;2.70;;;1.10;;
5646;SDS011;2845;48.626;9.362;2023-11-18T05:43:29;1.95;;;1.10;;
5646;SDS011;2845;48.626;9.362;2023-11-18T05:46:12;1.70;;;0.88;;
5646;SDS011;2845;48.626;9.362;2023-11-18T05:48:53;2.08;;;1.15;;
5646;SDS011;2845;48.626;9.362;2023-11-18T05:51:29;2.78;;;1.23;;
5646;SDS011;2845;48.626;9.362;2023-11-18T05:54:05;2.28;;;1.20;;
5646;SDS011;2845;48.626;9.362;2023-11-18T05:56:40;3.05;;;1.50;;
5646;SDS011;2845;48.626;9.362;2023-11-18T05:59:15;3.22;;;1.40;;
5646;SDS011;2845;48.626;9.362;2023-11-18T06:01:50;2.70;;;1.42;;
5646;SDS011;2845;48.626;9.362;2023-11-18T06:04:25;2.58;;;1.23;;
5646;SDS011;2845;48.626;9.362;2023-11-18T06:07:01;2.35;;;1.20;;
5646;SDS011;2845;48.626;9.362;2023-11-18T06:09:37;4.57;;;1.58;;
5646;SDS011;2845;48.626;9.362;2023-11-18T06:12:13;2.83;;;1.17;;
5646;SDS011;2845;48.626;9.362;2023-11-18T06:14:50;2.63;;;1.23;;
5646;SDS011;2845;48.626;9.362;2023-11-18T06:17:26;3.05;;;1.35;;
5646;SDS011;2845;48.626;9.362;2023-11-18T06:20:04;2.50;;;1.15;;
5646;SDS011;2845;48.626;9.362;2023-11-18T06:22:41;4.55;;;1.67;;
5646;SDS011;2845;48.626;9.362;2023-11-18T06:25:15;2.67;;;1.23;;
5646;SDS011;2845;48.626;9.362;2023-11-18T06:27:50;2.35;;;1.17;;
5646;SDS011;2845;48.626;9.362;2023-11-18T06:30:25;2.75;;;1.30;;
5646;SDS011;2845;48.626;9.362;2023-11-18T06:33:00;3.47;;;1.50;;
5646;SDS011;2845;48.626;9.362;2023-11-18T06:35:37;2.10;;;1.17;;
5646;SDS011;2845;48.626;9.362;2023-11-18T06:38:14;2.88;;;1.52;;
5646;SDS011;2845;48.626;9.362;2023-11-18T06:40:51;2.72;;;1.33;;
5646;SDS011;2845;48.626;9.362;2023-11-18T06:43:25;3.63;;;1.63;;
5646;SDS011;2845;48.626;9.362;2023-11-18T06:46:08;3.10;;;1.50;;
5646;SDS011;2845;48.626;9.362;2023-11-18T06:48:46;4.32;;;1.90;;
5646;SDS011;2845;48.626;9.362;2023-11-18T06:51:23;5.53;;;2.15;;
5646;SDS011;2845;48.626;9.362;2023-11-18T06:54:01;4.78;;;2.08;;
5646;SDS011;2845;48.626;9.362;2023-11-18T06:56:42;3.67;;;1.50;;
5646;SDS011;2845;48.626;9.362;2023-11-18T06:59:18;7.43;;;2.70;;
5646;SDS011;2845;48.626;9.362;2023-11-18T07:01:53;3.80;;;1.83;;
5646;SDS011;2845;48.626;9.362;2023-11-18T07:04:28;4.28;;;2.22;;
5646;SDS011;2845;48.626;9.362;2023-11-18T07:07:04;5.50;;;2.45;;
5646;SDS011;2845;48.626;9.362;2023-11-18T07:09:42;4.57;;;2.05;;
5646;SDS011;2845;48.626;9.362;2023-11-18T07:12:21;4.57;;;2.17;;
5646;SDS011;2845;48.626;9.362;2023-11-18T07:14:58;4.57;;;2.00;;
5646;SDS011;2845;48.626;9.362;2023-11-18T07:17:33;4.10;;;2.20;;
5646;SDS011;2845;48.626;9.362;2023-11-18T07:20:08;4.40;;;2.22;;
5646;SDS011;2845;48.626;9.362;2023-11-18T07:22:45;3.85;;;2.08;;
5646;SDS011;2845;48.626;9.362;2023-11-18T07:25:22;8.93;;;2.40;;
5646;SDS011;2845;48.626;9.362;2023-11-18T07:27:56;4.20;;;2.15;;
5646;SDS011;2845;48.626;9.362;2023-11-18T07:30:34;5.28;;;2.25;;
5646;SDS011;2845;48.626;9.362;2023-11-18T07:33:09;4.82;;;2.25;;
5646;SDS011;2845;48.626;9.362;2023-11-18T07:35:44;5.20;;;2.45;;
5646;SDS011;2845;48.626;9.362;2023-11-18T07:38:22;4.82;;;2.00;;
5646;SDS011;2845;48.626;9.362;2023-11-18T07:41:24;4.90;;;2.22;;
5646;SDS011;2845;48.626;9.362;2023-11-18T07:44:05;4.82;;;2.50;;
5646;SDS011;2845;48.626;9.362;2023-11-18T07:46:45;5.55;;;2.67;;
5646;SDS011;2845;48.626;9.362;2023-11-18T07:49:24;5.60;;;2.10;;
5646;SDS011;2845;48.626;9.362;2023-11-18T07:51:59;4.00;;;1.60;;
5646;SDS011;2845;48.626;9.362;2023-11-18T07:54:33;4.28;;;1.80;;
5646;SDS011;2845;48.626;9.362;2023-11-18T07:57:09;5.15;;;2.20;;
5646;SDS011;2845;48.626;9.362;2023-11-18T07:59:45;3.55;;;1.80;;
5646;SDS011;2845;48.626;9.362;2023-11-18T08:02:23;3.97;;;1.45;;
5646;SDS011;2845;48.626;9.362;2023-11-18T08:04:58;3.20;;;1.70;;
5646;SDS011;2845;48.626;9.362;2023-11-18T08:07:33;2.80;;;1.50;;
5646;SDS011;2845;48.626;9.362;2023-11-18T08:10:08;2.80;;;1.38;;
5646;SDS011;2845;48.626;9.362;2023-11-18T08:12:47;1.90;;;1.17;;
5646;SDS011;2845;48.626;9.362;2023-11-18T08:15:33;2.00;;;1.20;;
5646;SDS011;2845;48.626;9.362;2023-11-18T08:23:06;3.10;;;1.27;;
5646;SDS011;2845;48.626;9.362;2023-11-18T08:25:41;2.10;;;1.02;;
5646;SDS011;2845;48.626;9.362;2023-11-18T08:28:17;3.05;;;1.17;;
5646;SDS011;2845;48.626;9.362;2023-11-18T08:30:53;2.05;;;1.23;;
5646;SDS011;2845;48.626;9.362;2023-11-18T08:33:27;1.80;;;0.95;;
5646;SDS011;2845;48.626;9.362;2023-11-18T08:36:02;3.15;;;1.35;;
5646;SDS011;2845;48.626;9.362;2023-11-18T08:38:38;2.05;;;1.00;;
5646;SDS011;2845;48.626;9.362;2023-11-18T08:41:12;1.25;;;0.80;;
5646;SDS011;2845;48.626;9.362;2023-11-18T08:43:48;2.95;;;1.05;;
5646;SDS011;2845;48.626;9.362;2023-11-18T08:46:24;2.42;;;1.17;;
5646;SDS011;2845;48.626;9.362;2023-11-18T08:48:58;2.08;;;1.00;;
5646;SDS011;2845;48.626;9.362;2023-11-18T08:51:42;2.30;;;1.15;;
5646;SDS011;2845;48.626;9.362;2023-11-18T08:54:16;1.90;;;1.00;;
5646;SDS011;2845;48.626;9.362;2023-11-18T08:56:57;3.72;;;1.45;;
5646;SDS011;2845;48.626;9.362;2023-11-18T08:59:33;2.25;;;1.13;;
5646;SDS011;2845;48.626;9.362;2023-11-18T09:02:08;2.20;;;0.95;;
5646;SDS011;2845;48.626;9.362;2023-11-18T09:04:47;1.70;;;0.90;;
5646;SDS011;2845;48.626;9.362;2023-11-18T09:07:21;2.13;;;1.10;;
5646;SDS011;2845;48.626;9.362;2023-11-18T09:09:56;1.80;;;1.00;;
5646;SDS011;2845;48.626;9.362;2023-11-18T09:12:30;1.58;;;1.10;;
5646;SDS011;2845;48.626;9.362;2023-11-18T09:15:06;2.17;;;1.05;;
5646;SDS011;2845;48.626;9.362;2023-11-18T09:17:41;2.38;;;1.20;;
5646;SDS011;2845;48.626;9.362;2023-11-18T09:20:17;2.15;;;1.13;;
5646;SDS011;2845;48.626;9.362;2023-11-18T09:22:54;2.15;;;0.90;;
5646;SDS011;2845;48.626;9.362;2023-11-18T09:25:29;1.58;;;1.08;;
5646;SDS011;2845;48.626;9.362;2023-11-18T09:28:05;2.17;;;1.02;;
5646;SDS011;2845;48.626;9.362;2023-11-18T09:30:44;2.38;;;0.90;;
5646;SDS011;2845;48.626;9.362;2023-11-18T09:33:23;2.63;;;1.17;;
5646;SDS011;2845;48.626;9.362;2023-11-18T09:36:01;1.83;;;0.90;;
5646;SDS011;2845;48.626;9.362;2023-11-18T09:38:40;2.58;;;1.20;;
5646;SDS011;2845;48.626;9.362;2023-11-18T09:41:17;1.95;;;1.20;;
5646;SDS011;2845;48.626;9.362;2023-11-18T09:43:52;1.63;;;0.95;;
5646;SDS011;2845;48.626;9.362;2023-11-18T09:46:31;2.30;;;1.10;;
5646;SDS011;2845;48.626;9.362;2023-11-18T09:49:16;3.72;;;1.27;;
5646;SDS011;2845;48.626;9.362;2023-11-18T09:52:06;2.45;;;1.17;;
5646;SDS011;2845;48.626;9.362;2023-11-18T09:54:42;1.92;;;1.00;;
5646;SDS011;2845;48.626;9.362;2023-11-18T09:57:26;2.22;;;1.27;;
5646;SDS011;2845;48.626;9.362;2023-11-18T10:00:07;2.15;;;1.10;;
5646;SDS011;2845;48.626;9.362;2023-11-18T10:02:54;3.17;;;1.10;;
5646;SDS011;2845;48.626;9.362;2023-11-18T10:05:29;2.80;;;1.25;;
5646;SDS011;2845;48.626;9.362;2023-11-18T10:08:06;2.05;;;0.88;;
5646;SDS011;2845;48.626;9.362;2023-11-18T10:10:40;1.77;;;0.95;;
5646;SDS011;2845;48.626;9.362;2023-11-18T10:13:18;2.70;;;1.35;;
5646;SDS011;2845;48.626;9.362;2023-11-18T10:15:55;2.80;;;1.17;;
5646;SDS011;2845;48.626;9.362;2023-11-18T10:18:31;2.20;;;1.17;;
5646;SDS011;2845;48.626;9.362;2023-11-18T10:21:09;2.20;;;1.17;;
5646;SDS011;2845;48.626;9.362;2023-11-18T10:23:58;2.20;;;1.13;;
5646;SDS011;2845;48.626;9.362;2023-11-18T10:26:34;2.22;;;1.20;;
5646;SDS011;2845;48.626;9.362;2023-11-18T10:29:11;2.15;;;1.00;;
5646;SDS011;2845;48.626;9.362;2023-11-18T10:31:45;1.63;;;1.02;;
5646;SDS011;2845;48.626;9.362;2023-11-18T10:34:21;1.92;;;0.90;;
5646;SDS011;2845;48.626;9.362;2023-11-18T10:36:58;2.60;;;0.95;;
5646;SDS011;2845;48.626;9.362;2023-11-18T10:39:35;2.03;;;1.15;;
5646;SDS011;2845;48.626;9.362;2023-11-18T10:42:10;1.98;;;0.93;;
5646;SDS011;2845;48.626;9.362;2023-11-18T10:44:54;2.72;;;1.10;;
5646;SDS011;2845;48.626;9.362;2023-11-18T10:47:32;2.08;;;0.85;;
5646;SDS011;2845;48.626;9.362;2023-11-18T10:50:10;3.30;;;0.70;;
5646;SDS011;2845;48.626;9.362;2023-11-18T10:52:46;2.00;;;0.80;;
5646;SDS011;2845;48.626;9.362;2023-11-18T10:55:20;1.58;;;0.90;;
5646;SDS011;2845;48.626;9.362;2023-11-18T10:57:55;1.83;;;0.90;;
5646;SDS011;2845;48.626;9.362;2023-11-18T11:00:45;1.85;;;0.82;;
5646;SDS011;2845;48.626;9.362;2023-11-18T11:03:21;2.88;;;0.93;;
5646;SDS011;2845;48.626;9.362;2023-11-18T11:05:58;1.90;;;0.80;;
5646;SDS011;2845;48.626;9.362;2023-11-18T11:08:36;1.92;;;0.90;;
5646;SDS011;2845;48.626;9.362;2023-11-18T11:11:13;1.27;;;0.80;;
5646;SDS011;2845;48.626;9.362;2023-11-18T11:13:50;2.78;;;1.52;;
5646;SDS011;2845;48.626;9.362;2023-11-18T11:16:32;1.48;;;0.93;;
5646;SDS011;2845;48.626;9.362;2023-11-18T11:19:16;2.40;;;0.90;;
5646;SDS011;2845;48.626;9.362;2023-11-18T11:22:05;2.00;;;0.90;;
5646;SDS011;2845;48.626;9.362;2023-11-18T11:24:49;1.90;;;0.80;;
5646;SDS011;2845;48.626;9.362;2023-11-18T11:27:38;2.33;;;0.90;;
5646;SDS011;2845;48.626;9.362;2023-11-18T11:30:26;2.80;;;0.80;;
5646;SDS011;2845;48.626;9.362;2023-11-18T11:33:05;2.88;;;1.00;;
5646;SDS011;2845;48.626;9.362;2023-11-18T11:35:53;1.30;;;0.77;;
5646;SDS011;2845;48.626;9.362;2023-11-18T11:38:32;1.95;;;0.65;;
5646;SDS011;2845;48.626;9.362;2023-11-18T11:41:08;1.33;;;0.60;;
5646;SDS011;2845;48.626;9.362;2023-11-18T11:43:52;1.55;;;0.68;;
5646;SDS011;2845;48.626;9.362;2023-11-18T11:46:31;2.00;;;0.68;;
5646;SDS011;2845;48.626;9.362;2023-11-18T11:49:08;1.58;;;0.77;;
5646;SDS011;2845;48.626;9.362;2023-11-18T11:51:54;2.20;;;0.90;;
5646;SDS011;2845;48.626;9.362;2023-11-18T11:54:42;1.42;;;0.80;;
5646;SDS011;2845;48.626;9.362;2023-11-18T11:57:28;1.92;;;1.00;;
5646;SDS011;2845;48.626;9.362;2023-11-18T12:00:08;1.60;;;0.90;;
5646;SDS011;2845;48.626;9.362;2023-11-18T12:02:49;1.45;;;0.70;;
5646;SDS011;2845;48.626;9.362;2023-11-18T12:05:27;2.22;;;1.13;;
5646;SDS011;2845;48.626;9.362;2023-11-18T12:08:07;2.13;;;0.95;;
5646;SDS011;2845;48.626;9.362;2023-11-18T12:10:51;2.30;;;0.80;;
5646;SDS011;2845;48.626;9.362;2023-11-18T12:13:28;2.88;;;1.00;;
5646;SDS011;2845;48.626;9.362;2023-11-18T12:16:07;2.80;;;1.27;;
5646;SDS011;2845;48.626;9.362;2023-11-18T12:18:43;2.58;;;1.02;;
5646;SDS011;2845;48.626;9.362;2023-11-18T12:21:58;4.30;;;1.70;;
5646;SDS011;2845;48.626;9.362;2023-11-18T12:24:45;2.63;;;1.38;;
5646;SDS011;2845;48.626;9.362;2023-11-18T12:28:21;1.88;;;0.90;;
5646;SDS011;2845;48.626;9.362;2023-11-18T12:31:08;3.67;;;1.10;;
5646;SDS011;2845;48.626;9.362;2023-11-18T14:57:00;2.58;;;0.80;;
5646;SDS011;2845;48.626;9.362;2023-11-18T14:59:35;2.83;;;0.88;;
5646;SDS011;2845;48.626;9.362;2023-11-18T15:02:10;2.67;;;0.60;;
5646;SDS011;2845;48.626;9.362;2023-11-18T15:04:45;1.08;;;0.60;;
5646;SDS011;2845;48.626;9.362;2023-11-18T15:07:20;1.73;;;0.52;;
5646;SDS011;2845;48.626;9.362;2023-11-18T15:09:55;1.08;;;0.50;;
5646;SDS011;2845;48.626;9.362;2023-11-18T15:12:31;2.05;;;0.63;;
5646;SDS011;2845;48.626;9.362;2023-11-18T15:15:06;1.90;;;0.68;;
5646;SDS011;2845;48.626;9.362;2023-11-18T15:17:49;1.65;;;0.77;;
5646;SDS011;2845;48.626;9.362;2023-11-18T15:20:43;1.83;;;0.80;;
5646;SDS011;2845;48.626;9.362;2023-11-18T15:23:50;1.90;;;0.80;;
5646;SDS011;2845;48.626;9.362;2023-11-18T15:27:18;1.98;;;0.80;;
5646;SDS011;2845;48.626;9.362;2023-11-18T15:37:51;1.90;;;0.60;;
5646;SDS011;2845;48.626;9.362;2023-11-18T15:41:21;1.73;;;0.70;;
5646;SDS011;2845;48.626;9.362;2023-11-18T15:44:53;2.03;;;0.75;;
5646;SDS011;2845;48.626;9.362;2023-11-18T15:48:14;1.10;;;0.60;;
5646;SDS011;2845;48.626;9.362;2023-11-18T15:51:31;0.90;;;0.50;;
5646;SDS011;2845;48.626;9.362;2023-11-18T15:54:58;1.70;;;0.60;;
5646;SDS011;2845;48.626;9.362;2023-11-18T15:58:12;2.03;;;0.90;;
5646;SDS011;2845;48.626;9.362;2023-11-18T16:01:55;2.13;;;0.80;;
5646;SDS011;2845;48.626;9.362;2023-11-18T16:13:03;2.55;;;0.63;;
5646;SDS011;2845;48.626;9.362;2023-11-18T16:15:59;3.83;;;1.02;;
5646;SDS011;2845;48.626;9.362;2023-11-18T16:19:54;3.63;;;1.05;;
5646;SDS011;2845;48.626;9.362;2023-11-18T16:22:58;2.75;;;1.02;;
5646;SDS011;2845;48.626;9.362;2023-11-18T16:30:11;4.43;;;0.80;;
5646;SDS011;2845;48.626;9.362;2023-11-18T16:33:41;1.55;;;0.75;;
5646;SDS011;2845;48.626;9.362;2023-11-18T16:37:21;1.35;;;0.63;;
5646;SDS011;2845;48.626;9.362;2023-11-18T16:40:46;2.47;;;0.70;;
5646;SDS011;2845;48.626;9.362;2023-11-18T16:43:23;2.85;;;0.60;;
5646;SDS011;2845;48.626;9.362;2023-11-18T16:45:57;1.17;;;0.52;;
5646;SDS011;2845;48.626;9.362;2023-11-18T16:48:31;0.50;;;0.25;;
5646;SDS011;2845;48.626;9.362;2023-11-18T16:51:06;2.22;;;0.45;;
5646;SDS011;2845;48.626;9.362;2023-11-18T16:53:40;1.25;;;0.30;;
5646;SDS011;2845;48.626;9.362;2023-11-18T16:56:15;5.40;;;0.57;;
5646;SDS011;2845;48.626;9.362;2023-11-18T16:58:51;1.63;;;0.63;;
5646;SDS011;2845;48.626;9.362;2023-11-18T17:01:25;0.60;;;0.20;;
5646;SDS011;2845;48.626;9.362;2023-11-18T17:04:00;1.13;;;0.40;;
5646;SDS011;2845;48.626;9.362;2023-11-18T17:06:35;1.42;;;0.50;;
5646;SDS011;2845;48.626;9.362;2023-11-18T17:09:10;1.88;;;0.52;;
5646;SDS011;2845;48.626;9.362;2023-11-18T17:11:46;1.20;;;0.35;;
5646;SDS011;2845;48.626;9.362;2023-11-18T17:14:23;1.40;;;0.30;;
5646;SDS011;2845;48.626;9.362;2023-11-18T17:16:57;1.63;;;0.40;;
5646;SDS011;2845;48.626;9.362;2023-11-18T17:19:31;4.00;;;0.90;;
5646;SDS011;2845;48.626;9.362;2023-11-18T17:22:07;2.63;;;0.73;;
5646;SDS011;2845;48.626;9.362;2023-11-18T17:24:43;1.73;;;0.85;;
5646;SDS011;2845;48.626;9.362;2023-11-18T17:27:20;1.00;;;0.40;;
5646;SDS011;2845;48.626;9.362;2023-11-18T17:29:58;0.95;;;0.40;;
5646;SDS011;2845;48.626;9.362;2023-11-18T17:32:32;2.78;;;0.57;;
5646;SDS011;2845;48.626;9.362;2023-11-18T17:35:07;1.70;;;0.50;;
5646;SDS011;2845;48.626;9.362;2023-11-18T17:37:48;1.80;;;0.63;;
5646;SDS011;2845;48.626;9.362;2023-11-18T17:40:23;1.33;;;0.75;;
5646;SDS011;2845;48.626;9.362;2023-11-18T17:42:57;1.90;;;0.70;;
5646;SDS011;2845;48.626;9.362;2023-11-18T17:45:33;1.45;;;0.77;;
5646;SDS011;2845;48.626;9.362;2023-11-18T17:48:07;0.95;;;0.47;;
5646;SDS011;2845;48.626;9.362;2023-11-18T17:50:42;1.15;;;0.32;;
5646;SDS011;2845;48.626;9.362;2023-11-18T17:53:16;0.65;;;0.38;;
5646;SDS011;2845;48.626;9.362;2023-11-18T17:55:51;1.45;;;0.65;;
5646;SDS011;2845;48.626;9.362;2023-11-18T17:58:26;1.10;;;0.50;;
5646;SDS011;2845;48.626;9.362;2023-11-18T18:01:02;1.35;;;0.63;;
5646;SDS011;2845;48.626;9.362;2023-11-18T18:03:38;1.15;;;0.40;;
5646;SDS011;2845;48.626;9.362;2023-11-18T18:06:15;1.52;;;0.57;;
5646;SDS011;2845;48.626;9.362;2023-11-18T18:08:49;2.30;;;0.50;;
5646;SDS011;2845;48.626;9.362;2023-11-18T18:11:23;0.73;;;0.32;;
5646;SDS011;2845;48.626;9.362;2023-11-18T18:13:58;1.20;;;0.50;;
5646;SDS011;2845;48.626;9.362;2023-11-18T18:16:35;1.90;;;0.50;;
5646;SDS011;2845;48.626;9.362;2023-11-18T18:19:09;1.67;;;0.43;;
5646;SDS011;2845;48.626;9.362;2023-11-18T18:21:43;2.15;;;0.70;;
5646;SDS011;2845;48.626;9.362;2023-11-18T18:24:20;2.33;;;0.82;;
5646;SDS011;2845;48.626;9.362;2023-11-18T18:26:54;2.15;;;1.13;;
5646;SDS011;2845;48.626;9.362;2023-11-18T18:29:28;2.15;;;1.00;;
5646;SDS011;2845;48.626;9.362;2023-11-18T18:32:05;2.25;;;0.63;;
5646;SDS011;2845;48.626;9.362;2023-11-18T18:34:42;1.02;;;0.50;;
5646;SDS011;2845;48.626;9.362;2023-11-18T18:37:17;1.92;;;0.63;;
5646;SDS011;2845;48.626;9.362;2023-11-18T18:39:54;2.60;;;0.88;;
5646;SDS011;2845;48.626;9.362;2023-11-18T18:42:28;1.42;;;0.60;;
5646;SDS011;2845;48.626;9.362;2023-11-18T18:45:04;1.83;;;0.90;;
5646;SDS011;2845;48.626;9.362;2023-11-18T18:47:41;1.88;;;0.95;;
5646;SDS011;2845;48.626;9.362;2023-11-18T18:50:16;2.65;;;0.90;;
5646;SDS011;2845;48.626;9.362;2023-11-18T18:52:51;2.15;;;0.90;;
5646;SDS011;2845;48.626;9.362;2023-11-18T18:55:26;1.65;;;0.80;;
5646;SDS011;2845;48.626;9.362;2023-11-18T18:58:04;3.13;;;1.00;;
5646;SDS011;2845;48.626;9.362;2023-11-18T19:00:39;2.03;;;0.93;;
5646;SDS011;2845;48.626;9.362;2023-11-18T19:03:14;2.72;;;0.90;;
5646;SDS011;2845;48.626;9.362;2023-11-18T19:05:49;2.70;;;1.02;;
5646;SDS011;2845;48.626;9.362;2023-11-18T19:08:24;1.80;;;1.00;;
5646;SDS011;2845;48.626;9.362;2023-11-18T19:10:58;1.70;;;1.00;;
5646;SDS011;2845;48.626;9.362;2023-11-18T19:13:33;1.77;;;0.95;;
5646;SDS011;2845;48.626;9.362;2023-11-18T19:16:07;3.28;;;1.35;;
5646;SDS011;2845;48.626;9.362;2023-11-18T19:18:45;3.20;;;1.52;;